createdAt,value
2023-04-15T20:20:59.344Z,616.7692
2023-04-15T20:21:52.679Z,646.2500
2023-04-15T20:22:55.032Z,687.6154
2023-04-15T20:23:57.647Z,662.0769
2023-04-15T20:25:00.213Z,641.0000
2023-04-15T20:26:02.808Z,634.6154
2023-04-15T20:27:05.356Z,636.8461
2023-04-15T20:28:07.956Z,640.8461
2023-04-15T20:29:10.515Z,644.6923
2023-04-15T20:30:13.101Z,644.4615
2023-04-15T20:31:15.696Z,657.2308
2023-04-15T20:32:18.296Z,679.4615
2023-04-15T20:33:20.816Z,690.4615
2023-04-15T20:34:23.418Z,698.3846
2023-04-15T20:35:25.963Z,705.7692
2023-04-15T20:36:28.567Z,714.0000
2023-04-15T20:37:31.119Z,713.6923
2023-04-15T20:38:33.723Z,717.0769
2023-04-15T20:39:36.282Z,724.1539
2023-04-15T20:40:40.545Z,733.4615
2023-04-15T20:41:41.451Z,736.3846
2023-04-15T20:42:44.034Z,745.4615
2023-04-15T20:43:46.589Z,786.6154
2023-04-15T20:44:49.181Z,789.9231
2023-04-15T20:45:51.750Z,785.3846
2023-04-15T20:46:54.523Z,775.6154
2023-04-15T20:47:56.926Z,770.0769
2023-04-15T20:48:59.502Z,767.2308
2023-04-15T20:50:02.338Z,763.4615
2023-04-15T20:51:04.658Z,761.0000
2023-04-15T20:52:07.228Z,761.6154
2023-04-15T20:53:09.829Z,765.5385
2023-04-15T20:54:12.397Z,773.0769
2023-04-15T20:55:14.991Z,777.1539
2023-04-15T20:56:17.523Z,777.3077
2023-04-15T20:57:20.162Z,785.0769
2023-04-15T20:58:22.675Z,789.9231
2023-04-15T20:59:25.283Z,719.0000
2023-04-15T21:00:27.893Z,616.0000
2023-04-15T21:01:30.441Z,550.2308
2023-04-15T21:02:33.089Z,505.7692
2023-04-15T21:03:35.659Z,476.4615
2023-04-15T21:04:38.167Z,450.0769
2023-04-15T21:05:40.761Z,427.3077
2023-04-15T21:06:43.317Z,414.1538
2023-04-15T21:07:45.984Z,448.3077
2023-04-15T21:08:48.515Z,496.2308
2023-04-15T21:09:51.065Z,544.0769
2023-04-15T21:10:53.619Z,560.6154
2023-04-15T21:12:00.979Z,560.8461
2023-04-15T21:12:59.781Z,560.2308
2023-04-15T21:14:01.389Z,555.0769
2023-04-15T21:15:03.942Z,554.7692
2023-04-15T21:16:07.943Z,554.6923
2023-04-15T21:17:11.223Z,559.1667
2023-04-15T21:18:11.689Z,562.6923
2023-04-15T21:19:14.246Z,566.4615
2023-04-15T21:20:16.858Z,573.7692
2023-04-15T21:21:19.402Z,578.9231
2023-04-15T21:22:22.009Z,582.6154
2023-04-15T21:23:24.550Z,585.7692
2023-04-15T21:24:27.149Z,589.8461
2023-04-15T21:25:29.701Z,592.6154
2023-04-15T21:26:32.324Z,593.9231
2023-04-15T21:27:34.856Z,595.0769
2023-04-15T21:28:37.464Z,595.6154
2023-04-15T21:29:40.015Z,596.0769
2023-04-15T21:30:42.652Z,597.3846
2023-04-15T21:31:45.222Z,599.3846
2023-04-15T21:32:47.822Z,601.0000
2023-04-15T21:33:50.337Z,602.5385
2023-04-15T21:34:53.203Z,603.7692
2023-04-15T21:35:55.474Z,604.9231
2023-04-15T21:36:58.075Z,607.6154
2023-04-15T21:38:00.632Z,607.9231
2023-04-15T21:39:03.323Z,609.6923
2023-04-15T21:40:05.773Z,612.0769
2023-04-15T21:41:08.390Z,616.9231
2023-04-15T21:42:10.945Z,620.0000
2023-04-15T21:43:13.595Z,623.4615
2023-04-15T21:44:16.196Z,624.8461
2023-04-15T21:45:18.701Z,627.0769
2023-04-15T21:46:25.305Z,629.6923
2023-04-15T21:47:23.888Z,638.8461
2023-04-15T21:48:26.444Z,650.7692
2023-04-15T21:49:29.014Z,660.6154
2023-04-15T21:50:31.579Z,666.0000
2023-04-15T21:51:34.170Z,668.6154
2023-04-15T21:52:36.705Z,673.0000
2023-04-15T21:53:39.306Z,679.1539
2023-04-15T21:54:41.862Z,683.7692
2023-04-15T21:55:44.458Z,683.6923
2023-04-15T21:56:47.017Z,684.6154
2023-04-15T21:57:49.624Z,686.3077
2023-04-15T21:58:52.176Z,682.6923
2023-04-15T21:59:54.786Z,680.3846
2023-04-15T22:00:57.427Z,679.9231
2023-04-15T22:02:00.108Z,681.8461
2023-04-15T22:03:02.654Z,679.9231
2023-04-15T22:04:05.167Z,677.0000
2023-04-15T22:05:07.645Z,675.9231
2023-04-15T22:06:10.286Z,679.1539
2023-04-15T22:07:12.806Z,680.3846
2023-04-15T22:08:15.420Z,680.8461
2023-04-15T22:09:18.042Z,674.0769
2023-04-15T22:10:20.897Z,664.2308
2023-04-15T22:11:23.175Z,662.0769
2023-04-15T22:12:25.739Z,627.0769
2023-04-15T22:13:28.288Z,553.3077
2023-04-15T22:14:30.906Z,489.2308
2023-04-15T22:15:33.449Z,448.5385
2023-04-15T22:16:36.118Z,440.6154
2023-04-15T22:17:38.655Z,455.5385
2023-04-15T22:18:41.312Z,478.3846
2023-04-15T22:19:43.759Z,488.4615
2023-04-15T22:20:46.371Z,497.9231
2023-04-15T22:21:48.920Z,503.5385
2023-04-15T22:22:54.413Z,510.7692
2023-04-15T22:24:34.979Z,513.5385
2023-04-15T22:24:57.680Z,518.3846
2023-04-15T22:25:59.247Z,525.7692
2023-04-15T22:27:01.851Z,533.3077
2023-04-15T22:28:04.405Z,537.0000
2023-04-15T22:29:07.249Z,541.5385
2023-04-15T22:30:09.558Z,543.3077
2023-04-15T22:31:12.180Z,542.0769
2023-04-15T22:32:14.719Z,542.4615
2023-04-15T22:33:17.341Z,544.2308
2023-04-15T22:34:19.896Z,542.1539
2023-04-15T22:35:22.493Z,541.2308
2023-04-15T22:36:25.049Z,539.7692
2023-04-15T22:37:27.650Z,537.6923
2023-04-15T22:38:30.192Z,537.2308
2023-04-15T22:39:32.810Z,535.4615
2023-04-15T22:40:35.371Z,534.5385
2023-04-15T22:41:37.966Z,533.0769
2023-04-15T22:42:40.524Z,531.2308
2023-04-15T22:43:43.120Z,528.9231
2023-04-15T22:44:45.684Z,524.8461
2023-04-15T22:45:48.316Z,521.6154
2023-04-15T22:46:50.841Z,518.5385
2023-04-15T22:47:53.462Z,516.4615
2023-04-15T22:48:56.007Z,514.0769
2023-04-15T22:49:58.636Z,510.1538
2023-04-15T22:51:01.161Z,506.0769
2023-04-15T22:52:03.966Z,504.4615
2023-04-15T22:53:06.333Z,502.3077
2023-04-15T22:54:08.923Z,499.7692
2023-04-15T22:55:11.494Z,501.3846
2023-04-15T22:56:14.095Z,499.0000
2023-04-15T22:57:16.649Z,498.9231
2023-04-15T22:58:19.254Z,500.0000
2023-04-15T22:59:21.808Z,498.7692
2023-04-15T23:00:25.017Z,497.3077
2023-04-15T23:01:27.116Z,496.5385
2023-04-15T23:02:29.734Z,494.0769
2023-04-15T23:03:32.247Z,495.2308
2023-04-15T23:04:35.876Z,497.0769
2023-04-15T23:05:37.340Z,499.2308
2023-04-15T23:06:39.891Z,500.2308
2023-04-15T23:07:42.494Z,501.0000
2023-04-15T23:08:45.052Z,501.6923
2023-04-15T23:09:47.605Z,501.2308
2023-04-15T23:10:50.207Z,501.1538
2023-04-15T23:11:52.770Z,504.3077
2023-04-15T23:12:55.375Z,510.7692
2023-04-15T23:13:57.918Z,514.6923
2023-04-15T23:15:00.537Z,519.3846
2023-04-15T23:16:03.107Z,519.2308
2023-04-15T23:17:05.873Z,522.3077
2023-04-15T23:18:08.315Z,524.3846
2023-04-15T23:19:11.090Z,526.0000
2023-04-15T23:20:13.409Z,529.0000
2023-04-15T23:21:16.022Z,533.7692
2023-04-15T23:22:18.576Z,537.9231
2023-04-15T23:23:21.182Z,542.0769
2023-04-15T23:24:23.725Z,542.8461
2023-04-15T23:25:26.376Z,544.3077
2023-04-15T23:26:28.890Z,544.7692
2023-04-15T23:27:31.491Z,544.0000
2023-04-15T23:28:34.043Z,542.9231
2023-04-15T23:29:36.649Z,541.6923
2023-04-15T23:30:39.203Z,541.3077
2023-04-15T23:31:41.909Z,543.0769
2023-04-15T23:32:44.422Z,543.0000
2023-04-15T23:33:46.980Z,545.1539
2023-04-15T23:34:49.525Z,545.4615
2023-04-15T23:35:52.143Z,545.3846
2023-04-15T23:36:54.686Z,548.9231
2023-04-15T23:37:57.557Z,554.3846
2023-04-15T23:38:59.858Z,558.7692
2023-04-15T23:40:02.462Z,578.3846
2023-04-15T23:41:05.017Z,611.0769
2023-04-15T23:42:07.618Z,634.3846
2023-04-15T23:43:10.169Z,672.4615
2023-04-15T23:44:12.774Z,699.0000
2023-04-15T23:45:15.323Z,716.6154
2023-04-15T23:46:17.970Z,725.2308
2023-04-15T23:47:20.493Z,730.0769
2023-04-15T23:48:23.650Z,733.3846
2023-04-15T23:49:25.652Z,734.9231
2023-04-15T23:50:28.276Z,735.1539
2023-04-15T23:51:30.815Z,734.0000
2023-04-15T23:52:33.413Z,730.3846
2023-04-15T23:53:35.967Z,723.2308
2023-04-15T23:54:38.552Z,720.5385
2023-04-15T23:55:41.163Z,716.6154
2023-04-15T23:56:43.726Z,713.9231
2023-04-15T23:57:46.397Z,712.6923
2023-04-15T23:58:49.089Z,712.5385
2023-04-15T23:59:51.493Z,712.6154
